createdAt,value
2023-05-03T00:02:32.579Z,10.94
2023-05-03T00:07:40.533Z,10.91
2023-05-03T00:12:47.816Z,10.92
2023-05-03T00:17:55.794Z,10.93
2023-05-03T00:23:03.043Z,10.95
2023-05-03T00:28:10.337Z,10.92
2023-05-03T00:33:18.417Z,10.89
2023-05-03T00:38:27.202Z,10.89
2023-05-03T00:43:36.133Z,10.90
2023-05-03T00:48:43.445Z,10.89
2023-05-03T00:53:51.773Z,10.86
2023-05-03T00:58:59.430Z,10.83
2023-05-03T01:04:07.795Z,10.83
2023-05-03T01:09:23.076Z,10.84
2023-05-03T01:14:36.961Z,10.83
2023-05-03T01:19:49.857Z,10.81
2023-05-03T01:25:08.314Z,10.81
2023-05-03T01:30:16.990Z,10.79
2023-05-03T01:35:31.662Z,10.75
2023-05-03T01:40:43.934Z,10.70
2023-05-03T01:45:51.917Z,10.68
2023-05-03T01:50:59.494Z,10.65
2023-05-03T01:56:08.716Z,10.63
2023-05-03T02:01:15.908Z,10.62
2023-05-03T02:06:23.361Z,10.64
2023-05-03T02:11:30.978Z,10.64
2023-05-03T02:16:38.247Z,10.59
2023-05-03T02:21:45.310Z,10.56
2023-05-03T02:26:52.366Z,10.56
2023-05-03T02:31:59.676Z,10.56
2023-05-03T02:37:06.889Z,10.54
2023-05-03T02:42:14.544Z,10.51
2023-05-03T02:47:21.784Z,10.49
2023-05-03T02:52:29.523Z,10.50
2023-05-03T02:57:36.901Z,10.50
2023-05-03T03:02:44.195Z,10.49
2023-05-03T03:07:51.674Z,10.45
2023-05-03T03:12:59.179Z,10.42
2023-05-03T03:18:06.860Z,10.44
2023-05-03T03:23:14.055Z,10.45
2023-05-03T03:28:21.230Z,10.44
2023-05-03T03:33:28.568Z,10.44
2023-05-03T03:38:35.780Z,10.42
2023-05-03T03:43:43.446Z,10.39
2023-05-03T03:48:50.973Z,10.39
2023-05-03T03:53:58.270Z,10.39
2023-05-03T03:59:05.490Z,10.37
2023-05-03T04:04:12.804Z,10.41
2023-05-03T04:09:19.987Z,10.45
2023-05-03T04:14:27.375Z,10.46
2023-05-03T04:19:34.589Z,10.44
2023-05-03T04:24:44.118Z,10.48
2023-05-03T04:29:51.298Z,10.53
2023-05-03T04:34:59.040Z,10.57
2023-05-03T04:40:09.071Z,10.56
2023-05-03T04:45:16.868Z,10.60
2023-05-03T04:50:25.076Z,10.63
2023-05-03T04:55:32.235Z,10.60
2023-05-03T05:12:22.775Z,10.55
2023-05-03T05:17:32.099Z,10.61
2023-05-03T05:26:10.266Z,10.72
2023-05-03T05:31:17.592Z,10.74
2023-05-03T05:36:25.196Z,10.73
2023-05-03T05:41:32.655Z,10.73
2023-05-03T05:46:40.240Z,10.72
2023-05-03T05:51:47.539Z,10.73
2023-05-03T05:56:55.682Z,10.66
2023-05-03T06:02:03.201Z,10.56
2023-05-03T06:07:10.519Z,10.52
2023-05-03T06:12:17.778Z,10.53
2023-05-03T06:17:25.959Z,10.53
2023-05-03T06:22:33.828Z,10.53
2023-05-03T06:27:41.107Z,10.56
2023-05-03T06:32:49.826Z,10.59
2023-05-03T06:37:57.508Z,10.60
2023-05-03T06:43:05.017Z,10.61
2023-05-03T06:48:12.903Z,10.56
2023-05-03T06:53:20.315Z,10.54
2023-05-03T06:58:29.467Z,10.48
2023-05-03T07:03:38.610Z,10.45
2023-05-03T07:08:47.515Z,10.47
2023-05-03T07:13:55.498Z,10.44
2023-05-03T07:19:02.830Z,10.46
2023-05-03T07:24:12.989Z,10.43
2023-05-03T07:29:20.312Z,10.46
2023-05-03T07:34:28.078Z,10.57
2023-05-03T07:39:36.832Z,10.72
2023-05-03T07:44:44.208Z,10.81
2023-05-03T07:49:52.342Z,10.82
2023-05-03T07:56:05.098Z,10.90
2023-05-03T08:01:12.957Z,10.98
2023-05-03T08:06:20.810Z,10.95
2023-05-03T08:11:30.175Z,10.96
2023-05-03T08:16:37.474Z,10.97
2023-05-03T08:21:44.930Z,11.01
2023-05-03T08:26:52.911Z,11.04
2023-05-03T08:32:00.408Z,11.13
2023-05-03T08:37:07.586Z,11.17
2023-05-03T08:42:14.835Z,11.26
2023-05-03T08:47:22.293Z,11.36
2023-05-03T08:52:29.540Z,11.42
2023-05-03T08:57:38.188Z,11.51
2023-05-03T09:02:46.427Z,11.52
2023-05-03T09:08:07.815Z,11.59
2023-05-03T09:13:15.344Z,11.77
2023-05-03T09:18:24.135Z,11.96
2023-05-03T09:23:34.766Z,12.07
2023-05-03T09:28:45.346Z,12.21
2023-05-03T09:33:53.880Z,12.27
2023-05-03T09:39:17.365Z,12.28
2023-05-03T09:44:44.033Z,12.18
2023-05-03T09:49:51.594Z,12.18
2023-05-03T09:54:59.955Z,12.11
2023-05-03T10:00:10.696Z,11.96
2023-05-03T10:05:21.260Z,11.94
2023-05-03T10:10:33.883Z,11.99
2023-05-03T10:15:44.202Z,12.02
2023-05-03T10:20:59.669Z,11.99
2023-05-03T10:26:18.704Z,11.77
2023-05-03T10:31:48.274Z,11.52
2023-05-03T10:36:56.013Z,11.35
2023-05-03T10:42:08.220Z,11.28
2023-05-03T10:47:18.268Z,11.30
2023-05-03T10:52:49.938Z,11.36
2023-05-03T10:58:02.384Z,11.35
2023-05-03T11:03:27.243Z,11.28
2023-05-03T11:08:37.947Z,11.20
2023-05-03T11:13:45.346Z,11.18
2023-05-03T11:18:53.623Z,11.10
2023-05-03T11:24:02.720Z,11.02
2023-05-03T11:29:14.216Z,10.94
2023-05-03T11:34:21.649Z,10.88
2023-05-03T11:39:30.973Z,10.85
2023-05-03T11:44:39.089Z,10.85
2023-05-03T11:49:54.855Z,10.90
2023-05-03T11:55:05.524Z,11.00
2023-05-03T12:00:18.736Z,11.16
2023-05-03T12:05:27.914Z,11.33
2023-05-03T12:10:38.354Z,11.48
2023-05-03T12:15:55.665Z,11.59
2023-05-03T12:26:27.273Z,11.48
2023-05-03T12:31:39.358Z,11.53
2023-05-03T12:36:49.122Z,11.59
2023-05-03T12:42:07.040Z,11.63
2023-05-03T12:53:01.965Z,11.58
2023-05-03T13:03:22.439Z,11.64
2023-05-03T13:08:34.885Z,11.57
2023-05-03T13:13:43.159Z,11.51
2023-05-03T13:18:55.356Z,11.46
2023-05-03T13:24:02.677Z,11.46
2023-05-03T13:29:09.946Z,11.43
2023-05-03T13:34:17.312Z,11.26
2023-05-03T13:39:24.907Z,11.08
2023-05-03T13:44:32.092Z,10.99
2023-05-03T13:49:39.389Z,10.93
2023-05-03T13:54:46.701Z,10.89
2023-05-03T13:59:54.092Z,10.85
2023-05-03T14:05:01.459Z,10.85
2023-05-03T14:10:10.882Z,10.88
2023-05-03T14:15:19.063Z,10.97
2023-05-03T14:20:27.410Z,11.07
2023-05-03T14:25:35.130Z,11.11
2023-05-03T14:30:42.625Z,11.07
2023-05-03T14:35:51.086Z,10.97
2023-05-03T14:40:58.835Z,10.88
2023-05-03T14:46:06.501Z,10.85
2023-05-03T14:51:17.220Z,10.87
2023-05-03T14:56:24.790Z,10.96
2023-05-03T15:01:32.309Z,11.00
2023-05-03T15:06:41.727Z,11.05
2023-05-03T15:11:50.263Z,11.06
2023-05-03T15:16:57.866Z,11.09
2023-05-03T15:22:05.974Z,11.09
2023-05-03T15:27:13.795Z,11.13
2023-05-03T15:32:21.125Z,11.09
2023-05-03T15:37:38.792Z,11.03
2023-05-03T15:42:46.218Z,10.98
2023-05-03T15:47:53.525Z,10.97
2023-05-03T15:53:01.386Z,10.99
2023-05-03T15:58:09.828Z,11.01
2023-05-03T16:03:17.272Z,11.05
2023-05-03T16:08:25.275Z,11.11
2023-05-03T16:13:33.569Z,11.17
2023-05-03T16:18:42.099Z,11.19
2023-05-03T16:23:49.672Z,11.20
2023-05-03T16:28:56.896Z,11.20
2023-05-03T16:34:04.714Z,11.21
2023-05-03T16:39:12.765Z,11.24
2023-05-03T16:44:20.340Z,11.27
2023-05-03T16:49:27.884Z,11.28
2023-05-03T16:54:35.374Z,11.28
2023-05-03T16:59:43.195Z,11.29
2023-05-03T17:04:53.225Z,11.29
2023-05-03T17:10:02.193Z,11.30
2023-05-03T17:15:14.078Z,11.33
2023-05-03T17:20:22.229Z,11.34
2023-05-03T17:25:29.803Z,11.34
2023-05-03T17:30:37.221Z,11.31
2023-05-03T17:35:45.367Z,11.30
2023-05-03T17:40:52.643Z,11.25
2023-05-03T17:46:07.347Z,11.16
2023-05-03T17:51:14.731Z,11.11
2023-05-03T17:56:21.927Z,11.07
2023-05-03T18:01:29.692Z,11.10
2023-05-03T18:06:37.291Z,11.12
2023-05-03T18:11:45.674Z,11.09
2023-05-03T18:16:55.293Z,11.08
2023-05-03T18:22:02.808Z,11.09
2023-05-03T18:27:10.454Z,11.11
2023-05-03T18:32:18.049Z,11.13
2023-05-03T18:37:25.625Z,11.14
2023-05-03T18:42:33.367Z,11.11
2023-05-03T18:47:40.627Z,11.07
2023-05-03T18:52:48.593Z,11.07
2023-05-03T18:57:56.124Z,11.08
2023-05-03T19:03:04.357Z,11.08
2023-05-03T19:08:13.034Z,11.04
2023-05-03T19:13:20.886Z,10.98
2023-05-03T19:18:28.952Z,10.91
2023-05-03T19:23:36.622Z,10.83
2023-05-03T19:28:44.268Z,10.76
2023-05-03T19:33:51.739Z,10.72
2023-05-03T19:38:59.193Z,10.70
2023-05-03T19:44:07.124Z,10.64
2023-05-03T19:49:14.558Z,10.57
2023-05-03T20:08:44.498Z,10.51
2023-05-03T20:13:48.814Z,10.55
2023-05-03T20:18:54.083Z,10.57
2023-05-03T20:23:58.209Z,10.55
2023-05-03T20:29:02.384Z,10.56
2023-05-03T20:34:06.462Z,10.59
2023-05-03T20:39:12.582Z,10.59
2023-05-03T20:44:16.658Z,10.54
2023-05-03T20:49:20.712Z,10.48
2023-05-03T20:54:25.083Z,10.46
2023-05-03T20:59:29.136Z,10.42
2023-05-03T21:04:33.178Z,10.39
2023-05-03T21:09:37.193Z,10.38
2023-05-03T21:14:41.349Z,10.36
2023-05-03T21:19:45.839Z,10.35
2023-05-03T21:24:50.025Z,10.36
2023-05-03T21:29:54.160Z,10.26
2023-05-03T21:35:00.285Z,10.18
2023-05-03T21:40:06.127Z,10.16
2023-05-03T21:45:14.177Z,10.16
2023-05-03T21:50:18.769Z,10.19
2023-05-03T21:55:23.178Z,10.22
2023-05-03T22:00:28.681Z,10.20
2023-05-03T22:05:32.626Z,10.08
2023-05-03T22:10:37.741Z,9.96
2023-05-03T22:15:41.845Z,9.93
2023-05-03T22:20:45.982Z,9.94
2023-05-03T22:25:50.125Z,9.92
2023-05-03T22:30:54.239Z,9.92
2023-05-03T22:35:58.418Z,9.92
2023-05-03T22:41:03.577Z,9.90
2023-05-03T22:46:07.454Z,9.88
2023-05-03T22:51:12.299Z,9.83
2023-05-03T22:56:16.276Z,9.84
2023-05-03T23:01:20.274Z,9.87
2023-05-03T23:06:24.801Z,9.93
2023-05-03T23:11:28.864Z,9.99
2023-05-03T23:16:32.836Z,9.93
2023-05-03T23:21:37.289Z,9.80
2023-05-03T23:26:41.571Z,9.66
2023-05-03T23:31:46.330Z,9.64
2023-05-03T23:36:52.613Z,9.64
2023-05-03T23:41:56.703Z,9.63
2023-05-03T23:47:02.080Z,9.61
2023-05-03T23:52:06.970Z,9.59
2023-05-03T23:57:10.838Z,9.56
